Terminal Aerodrome Forecast
Issued by NWS

Current Version | Previous Version | Text Only | Print | Product List | Glossary Off
Versions: 1 2 3 4 5 6 7 8 9 10 11 12 13 14 15 16 17 18 19 20 21 22 23 24 25 26 27 28

736
FTUS41 KRNK 251720
TAFLWB
TAF
KLWB 251720Z 2518/2618 30010G18KT P6SM FEW250
     FM260000 29006KT P6SM FEW080
     FM260400 00000KT P6SM SCT080
     FM261400 28007KT P6SM FEW050=

USA.gov is the U.S. government's official web portal to all federal, state and local government web resources and services.